Iver Bright — ZDKU4 — position and weather

sailwx.info

Track history (hours):
 
Tides and Currents Weather Stations Pressure Air Temp Water Temp Dewpoint Dewpoint Depression Visibility Wind Speed Wind Dir Waves Ship Positions

Iver Bright

Last reported at 2017-Apr-27 15:10 UTC. Time now 2017-Apr-28 06:26 UTC.
Position N 37°12' E 015°16'.

Length 111 m; draft 5.1 m.

Type: Tanker. MMSI: 236111811.

Date/timePositionNaut miles runAvg speedWind from/ knotsBaromVisibWave heightAir tempDewpointWater temp
2017-Apr-27 15:10N 37°12' E 015°16'0 2.8
2017-Apr-27 15:00N 37°12' E 015°17'9 8.7
2017-Apr-27 13:57N 37°05' E 015°25'612.9
2017-Apr-27 13:31N 36°60' E 015°25'612.8
2017-Apr-27 13:00N 36°53' E 015°24'712.9
2017-Apr-27 12:29N 36°47' E 015°21'813.5
2017-Apr-27 11:55N 36°39' E 015°18'1711.8
2017-Apr-27 10:28N 36°29' E 015°01'1112.7
2017-Apr-27 09:38N 36°28' E 014°48'212.9
2017-Apr-27 09:31N 36°27' E 014°46'712.8
2017-Apr-27 09:00N 36°26' E 014°38'612.7
2017-Apr-27 08:31N 36°27' E 014°31'713.0
2017-Apr-27 08:01N 36°29' E 014°23'713.1
2017-Apr-27 07:30N 36°31' E 014°15'612.9
2017-Apr-27 07:01N 36°33' E 014°07'612.9
2017-Apr-27 06:31N 36°35' E 013°60'712.9
2017-Apr-27 06:00N 36°38' E 013°52'612.5
2017-Apr-27 05:31N 36°40' E 013°45'612.4
2017-Apr-27 05:00N 36°42' E 013°38'612.6
2017-Apr-27 04:31N 36°44' E 013°30'612.6
2017-Apr-27 04:00N 36°46' E 013°23'612.6
2017-Apr-27 03:31N 36°47' E 013°15'612.8
2017-Apr-27 03:01N 36°49' E 013°08'612.8
2017-Apr-27 02:31N 36°50' E 012°60'612.7
2017-Apr-27 02:00N 36°52' E 012°52'613.0
2017-Apr-27 01:30N 36°54' E 012°45'713.2
2017-Apr-27 01:00N 36°57' E 012°37'612.9
2017-Apr-27 00:31N 36°59' E 012°29'612.8
2017-Apr-27 00:01N 37°01' E 012°22'612.7
2017-Apr-26 23:30N 37°03' E 012°14'612.8
2017-Apr-26 23:00N 37°04' E 012°06'612.9
2017-Apr-26 22:30N 37°07' E 011°59'612.4
2017-Apr-26 21:59N 37°09' E 011°51'612.1
2017-Apr-26 21:30N 37°11' E 011°45'612.0
2017-Apr-26 21:01N 37°13' E 011°37'612.2
2017-Apr-26 20:30N 37°15' E 011°30'612.0
2017-Apr-26 19:59N 37°17' E 011°23'3011.8
2017-Apr-26 17:28N 37°29' E 010°48'  
2017-Apr-24 04:33N 37°16' E 007°11'112.1
2017-Apr-24 04:30N 37°16' E 007°12'712.2
2017-Apr-24 03:55N 37°19' E 007°21'512.5
2017-Apr-24 03:30N 37°20' E 007°27'1212.1
2017-Apr-24 02:29N 37°22' E 007°42'612.1
2017-Apr-24 02:00N 37°24' E 007°49'612.6
2017-Apr-24 01:30N 37°26' E 007°57'612.9
2017-Apr-24 01:00N 37°27' E 008°05'612.7
2017-Apr-24 00:31N 37°29' E 008°12'612.4
2017-Apr-24 00:00N 37°30' E 008°20'611.6
2017-Apr-23 23:30N 37°32' E 008°27'611.2
2017-Apr-23 23:01N 37°33' E 008°34'1111.6
2017-Apr-23 22:02N 37°37' E 008°47'111.7
2017-Apr-23 21:58N 37°37' E 008°48'711.9
2017-Apr-23 21:22N 37°39' E 008°57'512.0
2017-Apr-23 21:00N 37°39' E 009°03'612.0
2017-Apr-23 20:30N 37°39' E 009°10'612.0
2017-Apr-23 20:00N 37°39' E 009°18'612.2
2017-Apr-23 19:30N 37°39' E 009°25'812.1
2017-Apr-23 18:53N 37°39' E 009°35'412.1
2017-Apr-23 18:30N 37°39' E 009°41'612.0
2017-Apr-23 18:00N 37°39' E 009°48'611.9
2017-Apr-23 17:30N 37°39' E 009°56'2212.2
2017-Apr-23 15:40N 37°39' E 010°24'211.6
2017-Apr-23 15:30N 37°39' E 010°27'511.1
2017-Apr-23 15:01N 37°37' E 010°33'510.2
2017-Apr-23 14:31N 37°36' E 010°39'15511.9
2017-Apr-23 01:32N 36°40' E 013°40'112.9
2017-Apr-23 01:27N 36°40' E 013°41'1512.6
2017-Apr-23 00:15N 36°35' E 013°59'312.2
2017-Apr-22 23:59N 36°34' E 014°03'812.2
2017-Apr-22 23:19N 36°32' E 014°13'512.1
2017-Apr-22 22:54N 36°30' E 014°19'512.1
2017-Apr-22 22:30N 36°29' E 014°25'612.0
2017-Apr-22 22:00N 36°27' E 014°32'611.7
2017-Apr-22 21:30N 36°26' E 014°39'612.1
2017-Apr-22 21:00N 36°27' E 014°46'  
Track history (hours):
 
Tides and Currents Weather Stations Pressure Air Temp Water Temp Dewpoint Dewpoint Depression Visibility Wind Speed Wind Dir Waves Ship Positions

Iver Bright

Last reported at 2017-Apr-27 15:10 UTC. Time now 2017-Apr-28 06:26 UTC.
Position N 37°12' E 015°16'.

Length 111 m; draft 5.1 m.

Type: Tanker. MMSI: 236111811.

Date/timePositionNaut miles runAvg speedWind from/ knotsBaromVisibWave heightAir tempDewpointWater temp
2017-Apr-27 15:10N 37°12' E 015°16'0 2.8
2017-Apr-27 15:00N 37°12' E 015°17'9 8.7
2017-Apr-27 13:57N 37°05' E 015°25'612.9
2017-Apr-27 13:31N 36°60' E 015°25'612.8
2017-Apr-27 13:00N 36°53' E 015°24'712.9
2017-Apr-27 12:29N 36°47' E 015°21'813.5
2017-Apr-27 11:55N 36°39' E 015°18'1711.8
2017-Apr-27 10:28N 36°29' E 015°01'1112.7
2017-Apr-27 09:38N 36°28' E 014°48'212.9
2017-Apr-27 09:31N 36°27' E 014°46'712.8
2017-Apr-27 09:00N 36°26' E 014°38'612.7
2017-Apr-27 08:31N 36°27' E 014°31'713.0
2017-Apr-27 08:01N 36°29' E 014°23'713.1
2017-Apr-27 07:30N 36°31' E 014°15'612.9
2017-Apr-27 07:01N 36°33' E 014°07'612.9
2017-Apr-27 06:31N 36°35' E 013°60'712.9
2017-Apr-27 06:00N 36°38' E 013°52'612.5
2017-Apr-27 05:31N 36°40' E 013°45'612.4
2017-Apr-27 05:00N 36°42' E 013°38'612.6
2017-Apr-27 04:31N 36°44' E 013°30'612.6
2017-Apr-27 04:00N 36°46' E 013°23'612.6
2017-Apr-27 03:31N 36°47' E 013°15'612.8
2017-Apr-27 03:01N 36°49' E 013°08'612.8
2017-Apr-27 02:31N 36°50' E 012°60'612.7
2017-Apr-27 02:00N 36°52' E 012°52'613.0
2017-Apr-27 01:30N 36°54' E 012°45'713.2
2017-Apr-27 01:00N 36°57' E 012°37'612.9
2017-Apr-27 00:31N 36°59' E 012°29'612.8
2017-Apr-27 00:01N 37°01' E 012°22'612.7
2017-Apr-26 23:30N 37°03' E 012°14'612.8
2017-Apr-26 23:00N 37°04' E 012°06'612.9
2017-Apr-26 22:30N 37°07' E 011°59'612.4
2017-Apr-26 21:59N 37°09' E 011°51'612.1
2017-Apr-26 21:30N 37°11' E 011°45'612.0
2017-Apr-26 21:01N 37°13' E 011°37'612.2
2017-Apr-26 20:30N 37°15' E 011°30'612.0
2017-Apr-26 19:59N 37°17' E 011°23'3011.8
2017-Apr-26 17:28N 37°29' E 010°48'  
2017-Apr-24 04:33N 37°16' E 007°11'112.1
2017-Apr-24 04:30N 37°16' E 007°12'712.2
2017-Apr-24 03:55N 37°19' E 007°21'512.5
2017-Apr-24 03:30N 37°20' E 007°27'1212.1
2017-Apr-24 02:29N 37°22' E 007°42'612.1
2017-Apr-24 02:00N 37°24' E 007°49'612.6
2017-Apr-24 01:30N 37°26' E 007°57'612.9
2017-Apr-24 01:00N 37°27' E 008°05'612.7
2017-Apr-24 00:31N 37°29' E 008°12'612.4
2017-Apr-24 00:00N 37°30' E 008°20'611.6
2017-Apr-23 23:30N 37°32' E 008°27'611.2
2017-Apr-23 23:01N 37°33' E 008°34'1111.6
2017-Apr-23 22:02N 37°37' E 008°47'111.7
2017-Apr-23 21:58N 37°37' E 008°48'711.9
2017-Apr-23 21:22N 37°39' E 008°57'512.0
2017-Apr-23 21:00N 37°39' E 009°03'612.0
2017-Apr-23 20:30N 37°39' E 009°10'612.0
2017-Apr-23 20:00N 37°39' E 009°18'612.2
2017-Apr-23 19:30N 37°39' E 009°25'812.1
2017-Apr-23 18:53N 37°39' E 009°35'412.1
2017-Apr-23 18:30N 37°39' E 009°41'612.0
2017-Apr-23 18:00N 37°39' E 009°48'611.9
2017-Apr-23 17:30N 37°39' E 009°56'2212.2
2017-Apr-23 15:40N 37°39' E 010°24'211.6
2017-Apr-23 15:30N 37°39' E 010°27'511.1
2017-Apr-23 15:01N 37°37' E 010°33'510.2
2017-Apr-23 14:31N 37°36' E 010°39'15511.9
2017-Apr-23 01:32N 36°40' E 013°40'112.9
2017-Apr-23 01:27N 36°40' E 013°41'1512.6
2017-Apr-23 00:15N 36°35' E 013°59'312.2
2017-Apr-22 23:59N 36°34' E 014°03'812.2
2017-Apr-22 23:19N 36°32' E 014°13'512.1
2017-Apr-22 22:54N 36°30' E 014°19'512.1
2017-Apr-22 22:30N 36°29' E 014°25'612.0
2017-Apr-22 22:00N 36°27' E 014°32'611.7
2017-Apr-22 21:30N 36°26' E 014°39'612.1
2017-Apr-22 21:00N 36°27' E 014°46'  

Dump ship's entire track history